CheckWX is a tool to help pilots better visualize weather data.  It is not intended as a substitute for an official pre-flight weather briefing.

06:57:07 UTC

KOSH METAR
Wittman Regional Airport
Oshkosh, Wisconsin, USA
Current

1 hour ago

KOSH 210553Z AUTO 17003KT 4SM BR CLR 18/17 A3006 RMK AO2 SLP168 T01780167 10228 20178 402670156 57009
Observed
Sep-21 @ 05:53 UTC
Wind
  • 170° at 3 KTS
Visibility
4 SM
Flight Rules
MVFR
Conditions
Mist
Cloud Levels
  • Clear skies
Temperature
18°C / 64°F
Dewpoint
17°C / 63°F
Humidity
94%
Altimeter
30.06" Hg
Pressure
1017.92 hPa
Previous

2 hours ago

KOSH 210453Z AUTO 17004KT 6SM BR CLR 19/17 A3007 RMK AO2 SLP171 T01890172
Observed
Sep-21 @ 04:53 UTC
Wind
  • 170° at 4 KTS
Visibility
6 SM
Flight Rules
VFR
Conditions
Mist
Cloud Levels
  • Clear skies
Temperature
19°C / 66°F
Dewpoint
17°C / 63°F
Humidity
88%
Altimeter
30.07" Hg
Pressure
1018.32 hPa
Previous

3 hours ago

KOSH 210353Z AUTO 17006KT 7SM CLR 19/18 A3008 RMK AO2 SLP177 T01940178
Observed
Sep-21 @ 03:53 UTC
Wind
  • 170° at 6 KTS
Visibility
7 SM
Flight Rules
VFR
Cloud Levels
  • Clear skies
Temperature
19°C / 66°F
Dewpoint
18°C / 64°F
Humidity
94%
Altimeter
30.08" Hg
Pressure
1018.62 hPa